sensor_id;sensor_type;location;lat;lon;timestamp;P1;durP1;ratioP1;P2;durP2;ratioP2
72478;SDS011;60658;52.246;5.258;2022-11-15T01:37:15;80.82;;;23.67;;
72478;SDS011;60658;52.246;5.258;2022-11-15T01:41:37;75.60;;;22.88;;
72478;SDS011;60658;52.246;5.258;2022-11-15T01:49:57;65.45;;;22.17;;
72478;SDS011;60658;52.246;5.258;2022-11-15T04:03:48;78.28;;;25.92;;
72478;SDS011;60658;52.246;5.258;2022-11-15T04:26:31;72.18;;;26.33;;
72478;SDS011;60658;52.246;5.258;2022-11-15T04:35:49;64.95;;;25.50;;
72478;SDS011;60658;52.246;5.258;2022-11-15T04:37:57;66.13;;;25.67;;
72478;SDS011;60658;52.246;5.258;2022-11-15T04:38:30;60.80;;;25.88;;
72478;SDS011;60658;52.246;5.258;2022-11-15T04:39:37;59.85;;;26.08;;
72478;SDS011;60658;52.246;5.258;2022-11-15T04:45:47;54.47;;;23.85;;
72478;SDS011;60658;52.246;5.258;2022-11-15T04:46:51;65.78;;;25.88;;
72478;SDS011;60658;52.246;5.258;2022-11-15T04:48:14;58.78;;;25.05;;
72478;SDS011;60658;52.246;5.258;2022-11-15T04:49:19;63.95;;;25.75;;
72478;SDS011;60658;52.246;5.258;2022-11-15T04:50:25;65.13;;;26.52;;
72478;SDS011;60658;52.246;5.258;2022-11-15T04:51:30;63.92;;;25.52;;
72478;SDS011;60658;52.246;5.258;2022-11-15T04:52:53;61.47;;;26.20;;
72478;SDS011;60658;52.246;5.258;2022-11-15T04:55:43;54.10;;;24.02;;
72478;SDS011;60658;52.246;5.258;2022-11-15T04:56:52;57.30;;;23.48;;
72478;SDS011;60658;52.246;5.258;2022-11-15T04:59:41;49.30;;;23.52;;
72478;SDS011;60658;52.246;5.258;2022-11-15T05:00:47;53.53;;;23.50;;
72478;SDS011;60658;52.246;5.258;2022-11-15T05:04:40;48.65;;;23.33;;
72478;SDS011;60658;52.246;5.258;2022-11-15T05:07:19;57.20;;;23.55;;
72478;SDS011;60658;52.246;5.258;2022-11-15T05:09:49;54.67;;;23.95;;
72478;SDS011;60658;52.246;5.258;2022-11-15T05:10:52;55.28;;;24.48;;
72478;SDS011;60658;52.246;5.258;2022-11-15T05:12:02;54.67;;;23.77;;
72478;SDS011;60658;52.246;5.258;2022-11-15T05:13:36;50.47;;;24.42;;
72478;SDS011;60658;52.246;5.258;2022-11-15T05:14:49;50.47;;;22.25;;
72478;SDS011;60658;52.246;5.258;2022-11-15T05:37:40;48.33;;;22.00;;
72478;SDS011;60658;52.246;5.258;2022-11-15T05:40:23;51.00;;;21.95;;
72478;SDS011;60658;52.246;5.258;2022-11-15T05:41:50;41.50;;;21.27;;
72478;SDS011;60658;52.246;5.258;2022-11-15T06:19:36;35.47;;;18.67;;
72478;SDS011;60658;52.246;5.258;2022-11-15T06:20:40;37.35;;;19.02;;
72478;SDS011;60658;52.246;5.258;2022-11-15T06:21:47;38.55;;;19.00;;
72478;SDS011;60658;52.246;5.258;2022-11-15T06:23:01;40.55;;;20.65;;
72478;SDS011;60658;52.246;5.258;2022-11-15T06:24:04;38.60;;;19.48;;
72478;SDS011;60658;52.246;5.258;2022-11-15T06:25:05;38.53;;;20.77;;
72478;SDS011;60658;52.246;5.258;2022-11-15T06:27:37;44.22;;;20.40;;
72478;SDS011;60658;52.246;5.258;2022-11-15T06:28:47;43.33;;;20.90;;
72478;SDS011;60658;52.246;5.258;2022-11-15T06:29:48;38.75;;;20.08;;
72478;SDS011;60658;52.246;5.258;2022-11-15T06:30:48;41.80;;;21.33;;
72478;SDS011;60658;52.246;5.258;2022-11-15T06:31:50;40.95;;;21.00;;
72478;SDS011;60658;52.246;5.258;2022-11-15T06:34:48;34.88;;;18.60;;
72478;SDS011;60658;52.246;5.258;2022-11-15T06:36:15;39.50;;;18.23;;
72478;SDS011;60658;52.246;5.258;2022-11-15T06:37:17;41.42;;;19.45;;
72478;SDS011;60658;52.246;5.258;2022-11-15T06:38:18;41.28;;;21.20;;
72478;SDS011;60658;52.246;5.258;2022-11-15T06:39:32;38.08;;;19.98;;
72478;SDS011;60658;52.246;5.258;2022-11-15T06:40:34;35.45;;;20.67;;
72478;SDS011;60658;52.246;5.258;2022-11-15T06:41:44;42.90;;;21.70;;
72478;SDS011;60658;52.246;5.258;2022-11-15T06:42:47;41.75;;;21.33;;
72478;SDS011;60658;52.246;5.258;2022-11-15T06:43:53;38.58;;;19.95;;
72478;SDS011;60658;52.246;5.258;2022-11-15T06:44:54;36.65;;;19.77;;
72478;SDS011;60658;52.246;5.258;2022-11-15T06:46:01;42.42;;;22.15;;
72478;SDS011;60658;52.246;5.258;2022-11-15T06:49:16;37.78;;;19.27;;
72478;SDS011;60658;52.246;5.258;2022-11-15T06:55:12;39.20;;;19.08;;
72478;SDS011;60658;52.246;5.258;2022-11-15T06:57:07;40.97;;;19.92;;
72478;SDS011;60658;52.246;5.258;2022-11-15T06:57:56;35.50;;;19.08;;
72478;SDS011;60658;52.246;5.258;2022-11-15T06:59:47;38.60;;;19.42;;
72478;SDS011;60658;52.246;5.258;2022-11-15T07:01:50;39.97;;;20.23;;
72478;SDS011;60658;52.246;5.258;2022-11-15T07:02:20;43.70;;;19.30;;
72478;SDS011;60658;52.246;5.258;2022-11-15T07:03:39;40.42;;;20.85;;
72478;SDS011;60658;52.246;5.258;2022-11-15T07:05:37;42.28;;;20.70;;
72478;SDS011;60658;52.246;5.258;2022-11-15T07:06:48;45.53;;;20.45;;
72478;SDS011;60658;52.246;5.258;2022-11-15T07:07:54;42.85;;;19.80;;
72478;SDS011;60658;52.246;5.258;2022-11-15T07:09:04;41.95;;;20.45;;
72478;SDS011;60658;52.246;5.258;2022-11-15T07:10:20;39.25;;;19.83;;
72478;SDS011;60658;52.246;5.258;2022-11-15T07:11:36;39.95;;;20.02;;
72478;SDS011;60658;52.246;5.258;2022-11-15T07:12:46;40.40;;;19.52;;
72478;SDS011;60658;52.246;5.258;2022-11-15T07:13:47;40.53;;;20.38;;
72478;SDS011;60658;52.246;5.258;2022-11-15T07:14:48;37.10;;;20.52;;
72478;SDS011;60658;52.246;5.258;2022-11-15T07:15:49;46.47;;;22.67;;
72478;SDS011;60658;52.246;5.258;2022-11-15T07:16:49;45.85;;;21.63;;
72478;SDS011;60658;52.246;5.258;2022-11-15T07:17:50;40.92;;;22.27;;
72478;SDS011;60658;52.246;5.258;2022-11-15T07:18:51;38.58;;;21.45;;
72478;SDS011;60658;52.246;5.258;2022-11-15T07:19:52;42.67;;;22.13;;
72478;SDS011;60658;52.246;5.258;2022-11-15T07:20:52;42.10;;;20.73;;
72478;SDS011;60658;52.246;5.258;2022-11-15T07:21:53;39.65;;;19.80;;
72478;SDS011;60658;52.246;5.258;2022-11-15T07:22:58;39.60;;;20.60;;
72478;SDS011;60658;52.246;5.258;2022-11-15T07:23:59;40.53;;;19.83;;
72478;SDS011;60658;52.246;5.258;2022-11-15T07:25:00;40.63;;;20.20;;
72478;SDS011;60658;52.246;5.258;2022-11-15T07:26:07;37.35;;;19.63;;
72478;SDS011;60658;52.246;5.258;2022-11-15T07:30:28;34.33;;;17.85;;
72478;SDS011;60658;52.246;5.258;2022-11-15T07:31:29;34.13;;;17.20;;
72478;SDS011;60658;52.246;5.258;2022-11-15T07:32:36;40.33;;;19.60;;
72478;SDS011;60658;52.246;5.258;2022-11-15T07:33:36;38.38;;;19.73;;
72478;SDS011;60658;52.246;5.258;2022-11-15T07:34:37;39.83;;;19.13;;
72478;SDS011;60658;52.246;5.258;2022-11-15T07:35:38;43.17;;;20.67;;
72478;SDS011;60658;52.246;5.258;2022-11-15T07:36:43;36.58;;;19.40;;
72478;SDS011;60658;52.246;5.258;2022-11-15T07:37:44;40.45;;;20.02;;
72478;SDS011;60658;52.246;5.258;2022-11-15T07:38:48;39.88;;;20.02;;
72478;SDS011;60658;52.246;5.258;2022-11-15T07:39:49;39.28;;;20.52;;
72478;SDS011;60658;52.246;5.258;2022-11-15T07:40:55;37.63;;;20.05;;
72478;SDS011;60658;52.246;5.258;2022-11-15T07:41:58;36.40;;;19.33;;
72478;SDS011;60658;52.246;5.258;2022-11-15T07:42:59;38.17;;;19.63;;
72478;SDS011;60658;52.246;5.258;2022-11-15T07:45:44;35.28;;;18.27;;
72478;SDS011;60658;52.246;5.258;2022-11-15T07:46:46;34.85;;;18.05;;
72478;SDS011;60658;52.246;5.258;2022-11-15T08:33:17;28.45;;;15.15;;
72478;SDS011;60658;52.246;5.258;2022-11-15T08:34:26;29.45;;;14.15;;
72478;SDS011;60658;52.246;5.258;2022-11-15T08:35:27;28.23;;;14.57;;
72478;SDS011;60658;52.246;5.258;2022-11-15T08:38:15;28.13;;;14.00;;
72478;SDS011;60658;52.246;5.258;2022-11-15T08:39:26;29.35;;;15.07;;
72478;SDS011;60658;52.246;5.258;2022-11-15T08:42:35;25.02;;;13.43;;
72478;SDS011;60658;52.246;5.258;2022-11-15T08:43:42;30.23;;;14.40;;
72478;SDS011;60658;52.246;5.258;2022-11-15T08:53:37;21.58;;;11.25;;
72478;SDS011;60658;52.246;5.258;2022-11-15T08:59:23;22.67;;;11.27;;
72478;SDS011;60658;52.246;5.258;2022-11-15T09:00:23;25.02;;;11.40;;
72478;SDS011;60658;52.246;5.258;2022-11-15T09:01:26;23.23;;;11.82;;
72478;SDS011;60658;52.246;5.258;2022-11-15T09:02:31;26.02;;;12.88;;
72478;SDS011;60658;52.246;5.258;2022-11-15T09:03:34;28.02;;;11.90;;
72478;SDS011;60658;52.246;5.258;2022-11-15T09:04:35;22.13;;;11.57;;
72478;SDS011;60658;52.246;5.258;2022-11-15T09:05:42;20.52;;;11.13;;
72478;SDS011;60658;52.246;5.258;2022-11-15T09:06:51;18.85;;;10.15;;
72478;SDS011;60658;52.246;5.258;2022-11-15T09:07:52;18.90;;;9.88;;
72478;SDS011;60658;52.246;5.258;2022-11-15T09:08:57;19.00;;;11.00;;
72478;SDS011;60658;52.246;5.258;2022-11-15T09:10:17;19.95;;;10.38;;
72478;SDS011;60658;52.246;5.258;2022-11-15T09:12:40;18.13;;;9.95;;
72478;SDS011;60658;52.246;5.258;2022-11-15T09:13:46;20.27;;;10.18;;
72478;SDS011;60658;52.246;5.258;2022-11-15T09:14:55;20.80;;;11.13;;
72478;SDS011;60658;52.246;5.258;2022-11-15T09:16:06;21.02;;;10.15;;
72478;SDS011;60658;52.246;5.258;2022-11-15T09:17:08;18.38;;;9.73;;
72478;SDS011;60658;52.246;5.258;2022-11-15T09:18:09;17.35;;;9.98;;
72478;SDS011;60658;52.246;5.258;2022-11-15T09:19:12;17.48;;;9.52;;
72478;SDS011;60658;52.246;5.258;2022-11-15T11:18:42;5.10;;;3.47;;
72478;SDS011;60658;52.246;5.258;2022-11-15T11:20:07;5.45;;;3.30;;
72478;SDS011;60658;52.246;5.258;2022-11-15T11:24:39;7.82;;;3.40;;
72478;SDS011;60658;52.246;5.258;2022-11-15T11:30:20;3.85;;;2.80;;
72478;SDS011;60658;52.246;5.258;2022-11-15T12:20:24;5.65;;;1.40;;
72478;SDS011;60658;52.246;5.258;2022-11-15T12:28:13;5.43;;;1.23;;
72478;SDS011;60658;52.246;5.258;2022-11-15T12:45:47;3.55;;;1.00;;
72478;SDS011;60658;52.246;5.258;2022-11-15T12:47:22;5.20;;;1.42;;
72478;SDS011;60658;52.246;5.258;2022-11-15T12:49:01;5.82;;;1.38;;
72478;SDS011;60658;52.246;5.258;2022-11-15T12:50:03;6.18;;;1.00;;
72478;SDS011;60658;52.246;5.258;2022-11-15T12:51:04;3.78;;;1.23;;
72478;SDS011;60658;52.246;5.258;2022-11-15T12:52:08;6.15;;;1.50;;
72478;SDS011;60658;52.246;5.258;2022-11-15T12:53:29;3.22;;;1.00;;
72478;SDS011;60658;52.246;5.258;2022-11-15T12:56:31;7.05;;;1.20;;
72478;SDS011;60658;52.246;5.258;2022-11-15T12:57:52;3.08;;;0.98;;
72478;SDS011;60658;52.246;5.258;2022-11-15T13:02:00;3.05;;;1.10;;
72478;SDS011;60658;52.246;5.258;2022-11-15T13:04:44;6.95;;;0.80;;
72478;SDS011;60658;52.246;5.258;2022-11-15T13:14:43;2.83;;;1.23;;
72478;SDS011;60658;52.246;5.258;2022-11-15T13:15:54;5.30;;;1.23;;
72478;SDS011;60658;52.246;5.258;2022-11-15T13:17:15;7.50;;;1.38;;
72478;SDS011;60658;52.246;5.258;2022-11-15T13:22:42;4.93;;;1.05;;
72478;SDS011;60658;52.246;5.258;2022-11-15T13:47:37;5.90;;;1.40;;
72478;SDS011;60658;52.246;5.258;2022-11-15T13:48:38;3.65;;;1.40;;
72478;SDS011;60658;52.246;5.258;2022-11-15T13:49:39;6.40;;;1.50;;
72478;SDS011;60658;52.246;5.258;2022-11-15T13:50:39;3.30;;;1.60;;
72478;SDS011;60658;52.246;5.258;2022-11-15T13:53:24;5.22;;;1.25;;
72478;SDS011;60658;52.246;5.258;2022-11-15T13:54:53;4.88;;;1.30;;
72478;SDS011;60658;52.246;5.258;2022-11-15T13:57:54;5.88;;;1.65;;
72478;SDS011;60658;52.246;5.258;2022-11-15T14:00:39;5.07;;;1.83;;
72478;SDS011;60658;52.246;5.258;2022-11-15T14:04:34;5.53;;;1.80;;
72478;SDS011;60658;52.246;5.258;2022-11-15T14:05:25;7.30;;;1.60;;
72478;SDS011;60658;52.246;5.258;2022-11-15T14:06:42;3.85;;;1.40;;
72478;SDS011;60658;52.246;5.258;2022-11-15T14:07:56;3.25;;;1.35;;
72478;SDS011;60658;52.246;5.258;2022-11-15T14:09:24;5.57;;;1.70;;
72478;SDS011;60658;52.246;5.258;2022-11-15T14:10:27;6.03;;;1.52;;
72478;SDS011;60658;52.246;5.258;2022-11-15T14:13:10;7.10;;;2.03;;
72478;SDS011;60658;52.246;5.258;2022-11-15T14:14:13;5.05;;;1.88;;
72478;SDS011;60658;52.246;5.258;2022-11-15T14:15:25;6.35;;;1.80;;
72478;SDS011;60658;52.246;5.258;2022-11-15T14:16:32;5.80;;;1.80;;
72478;SDS011;60658;52.246;5.258;2022-11-15T14:17:57;3.95;;;1.73;;
72478;SDS011;60658;52.246;5.258;2022-11-15T14:19:09;4.15;;;2.00;;
72478;SDS011;60658;52.246;5.258;2022-11-15T14:22:14;9.30;;;1.98;;
72478;SDS011;60658;52.246;5.258;2022-11-15T14:23:24;6.15;;;1.92;;
72478;SDS011;60658;52.246;5.258;2022-11-15T14:24:31;5.55;;;1.90;;
72478;SDS011;60658;52.246;5.258;2022-11-15T14:25:32;4.35;;;1.75;;
72478;SDS011;60658;52.246;5.258;2022-11-15T14:26:53;4.80;;;1.75;;
72478;SDS011;60658;52.246;5.258;2022-11-15T14:28:13;9.75;;;1.85;;
72478;SDS011;60658;52.246;5.258;2022-11-15T14:29:38;3.47;;;1.83;;
72478;SDS011;60658;52.246;5.258;2022-11-15T14:30:39;5.30;;;2.15;;
72478;SDS011;60658;52.246;5.258;2022-11-15T14:31:40;4.50;;;2.55;;
72478;SDS011;60658;52.246;5.258;2022-11-15T14:32:45;5.28;;;1.83;;
72478;SDS011;60658;52.246;5.258;2022-11-15T14:33:48;5.55;;;2.05;;
72478;SDS011;60658;52.246;5.258;2022-11-15T14:34:58;5.40;;;1.88;;
72478;SDS011;60658;52.246;5.258;2022-11-15T14:36:11;4.57;;;1.77;;
72478;SDS011;60658;52.246;5.258;2022-11-15T14:37:25;3.83;;;2.13;;
72478;SDS011;60658;52.246;5.258;2022-11-15T14:38:38;4.43;;;1.90;;
72478;SDS011;60658;52.246;5.258;2022-11-15T14:39:49;3.83;;;1.92;;
72478;SDS011;60658;52.246;5.258;2022-11-15T14:40:53;4.88;;;1.98;;
72478;SDS011;60658;52.246;5.258;2022-11-15T14:41:54;6.30;;;1.80;;
72478;SDS011;60658;52.246;5.258;2022-11-15T14:42:58;6.60;;;2.15;;
72478;SDS011;60658;52.246;5.258;2022-11-15T14:44:05;6.63;;;1.88;;
72478;SDS011;60658;52.246;5.258;2022-11-15T14:45:10;5.13;;;1.67;;
72478;SDS011;60658;52.246;5.258;2022-11-15T14:46:33;8.38;;;2.20;;
72478;SDS011;60658;52.246;5.258;2022-11-15T14:47:37;5.10;;;2.13;;
72478;SDS011;60658;52.246;5.258;2022-11-15T14:48:49;5.43;;;1.90;;
72478;SDS011;60658;52.246;5.258;2022-11-15T14:49:50;4.43;;;1.90;;
72478;SDS011;60658;52.246;5.258;2022-11-15T14:50:54;4.75;;;1.70;;
72478;SDS011;60658;52.246;5.258;2022-11-15T14:51:55;6.38;;;1.80;;
72478;SDS011;60658;52.246;5.258;2022-11-15T14:52:59;5.75;;;1.67;;
72478;SDS011;60658;52.246;5.258;2022-11-15T14:54:07;5.03;;;1.67;;
72478;SDS011;60658;52.246;5.258;2022-11-15T14:55:11;6.47;;;1.90;;
72478;SDS011;60658;52.246;5.258;2022-11-15T14:56:19;6.25;;;1.65;;
72478;SDS011;60658;52.246;5.258;2022-11-15T14:57:35;5.45;;;1.50;;
72478;SDS011;60658;52.246;5.258;2022-11-15T14:58:36;5.28;;;1.85;;
72478;SDS011;60658;52.246;5.258;2022-11-15T14:59:37;4.47;;;1.75;;
72478;SDS011;60658;52.246;5.258;2022-11-15T15:00:41;5.40;;;1.50;;
72478;SDS011;60658;52.246;5.258;2022-11-15T15:01:42;4.95;;;2.08;;
72478;SDS011;60658;52.246;5.258;2022-11-15T15:02:44;4.63;;;1.70;;
72478;SDS011;60658;52.246;5.258;2022-11-15T15:03:50;5.63;;;1.75;;
72478;SDS011;60658;52.246;5.258;2022-11-15T15:05:06;6.47;;;1.70;;
72478;SDS011;60658;52.246;5.258;2022-11-15T15:06:25;6.03;;;1.80;;
72478;SDS011;60658;52.246;5.258;2022-11-15T15:07:53;5.63;;;1.80;;
72478;SDS011;60658;52.246;5.258;2022-11-15T15:08:56;4.35;;;1.70;;
72478;SDS011;60658;52.246;5.258;2022-11-15T15:09:58;2.97;;;1.67;;
72478;SDS011;60658;52.246;5.258;2022-11-15T15:11:16;7.40;;;1.88;;
72478;SDS011;60658;52.246;5.258;2022-11-15T15:12:29;5.35;;;1.77;;
72478;SDS011;60658;52.246;5.258;2022-11-15T15:13:42;4.43;;;1.67;;
72478;SDS011;60658;52.246;5.258;2022-11-15T15:14:55;3.30;;;1.38;;
72478;SDS011;60658;52.246;5.258;2022-11-15T15:18:43;5.00;;;1.50;;
72478;SDS011;60658;52.246;5.258;2022-11-15T15:19:45;4.78;;;1.60;;
72478;SDS011;60658;52.246;5.258;2022-11-15T15:21:16;3.25;;;1.50;;
72478;SDS011;60658;52.246;5.258;2022-11-15T15:22:27;4.10;;;1.40;;
72478;SDS011;60658;52.246;5.258;2022-11-15T15:23:45;3.78;;;1.40;;
72478;SDS011;60658;52.246;5.258;2022-11-15T15:27:04;4.50;;;1.30;;
72478;SDS011;60658;52.246;5.258;2022-11-15T15:28:08;4.30;;;1.38;;
72478;SDS011;60658;52.246;5.258;2022-11-15T15:29:21;5.45;;;1.65;;
72478;SDS011;60658;52.246;5.258;2022-11-15T15:31:58;5.38;;;1.70;;
72478;SDS011;60658;52.246;5.258;2022-11-15T15:33:42;3.47;;;1.30;;
72478;SDS011;60658;52.246;5.258;2022-11-15T15:34:59;5.18;;;1.52;;
72478;SDS011;60658;52.246;5.258;2022-11-15T15:39:23;4.72;;;1.40;;
72478;SDS011;60658;52.246;5.258;2022-11-15T15:40:30;3.17;;;1.20;;
72478;SDS011;60658;52.246;5.258;2022-11-15T15:42:00;3.75;;;1.83;;
72478;SDS011;60658;52.246;5.258;2022-11-15T15:46:26;5.38;;;1.27;;
72478;SDS011;60658;52.246;5.258;2022-11-15T15:47:27;3.70;;;1.60;;
72478;SDS011;60658;52.246;5.258;2022-11-15T15:48:52;3.22;;;1.30;;
72478;SDS011;60658;52.246;5.258;2022-11-15T15:50:34;4.35;;;1.30;;
72478;SDS011;60658;52.246;5.258;2022-11-15T15:51:45;3.42;;;1.20;;
72478;SDS011;60658;52.246;5.258;2022-11-15T15:55:54;4.65;;;1.38;;
72478;SDS011;60658;52.246;5.258;2022-11-15T15:57:00;5.40;;;1.48;;
72478;SDS011;60658;52.246;5.258;2022-11-15T15:58:32;5.70;;;1.35;;
72478;SDS011;60658;52.246;5.258;2022-11-15T16:01:17;3.03;;;1.30;;
72478;SDS011;60658;52.246;5.258;2022-11-15T16:05:31;5.88;;;1.70;;
72478;SDS011;60658;52.246;5.258;2022-11-15T16:06:36;4.22;;;1.60;;
72478;SDS011;60658;52.246;5.258;2022-11-15T16:07:43;5.45;;;1.55;;
72478;SDS011;60658;52.246;5.258;2022-11-15T16:08:44;5.15;;;1.30;;
72478;SDS011;60658;52.246;5.258;2022-11-15T16:50:47;3.67;;;1.70;;
72478;SDS011;60658;52.246;5.258;2022-11-15T17:45:18;3.65;;;1.75;;
72478;SDS011;60658;52.246;5.258;2022-11-15T17:46:22;5.75;;;2.15;;
72478;SDS011;60658;52.246;5.258;2022-11-15T17:57:21;5.43;;;2.35;;
72478;SDS011;60658;52.246;5.258;2022-11-15T18:17:36;6.60;;;2.50;;
72478;SDS011;60658;52.246;5.258;2022-11-15T19:34:33;8.25;;;4.55;;
72478;SDS011;60658;52.246;5.258;2022-11-15T19:35:47;9.52;;;4.95;;
72478;SDS011;60658;52.246;5.258;2022-11-15T19:38:07;7.88;;;4.90;;
72478;SDS011;60658;52.246;5.258;2022-11-15T19:41:30;9.02;;;5.05;;
72478;SDS011;60658;52.246;5.258;2022-11-15T19:42:47;8.60;;;4.70;;
72478;SDS011;60658;52.246;5.258;2022-11-15T19:47:49;7.45;;;4.55;;
72478;SDS011;60658;52.246;5.258;2022-11-15T19:51:48;7.65;;;5.40;;
72478;SDS011;60658;52.246;5.258;2022-11-15T19:53:02;8.45;;;5.32;;
72478;SDS011;60658;52.246;5.258;2022-11-15T19:55:30;8.35;;;4.88;;
72478;SDS011;60658;52.246;5.258;2022-11-15T19:56:43;8.30;;;5.57;;
72478;SDS011;60658;52.246;5.258;2022-11-15T19:59:04;9.23;;;5.20;;
72478;SDS011;60658;52.246;5.258;2022-11-15T19:59:55;9.73;;;5.55;;
72478;SDS011;60658;52.246;5.258;2022-11-15T20:01:35;8.75;;;5.30;;
72478;SDS011;60658;52.246;5.258;2022-11-15T20:03:04;7.53;;;5.50;;
72478;SDS011;60658;52.246;5.258;2022-11-15T20:05:35;14.57;;;6.38;;
72478;SDS011;60658;52.246;5.258;2022-11-15T20:06:22;9.68;;;6.00;;
72478;SDS011;60658;52.246;5.258;2022-11-15T20:08:08;9.25;;;5.38;;
72478;SDS011;60658;52.246;5.258;2022-11-15T20:16:45;11.40;;;6.45;;
72478;SDS011;60658;52.246;5.258;2022-11-15T20:17:37;9.57;;;6.00;;
72478;SDS011;60658;52.246;5.258;2022-11-15T20:19:49;11.60;;;5.88;;
72478;SDS011;60658;52.246;5.258;2022-11-15T20:21:16;9.27;;;5.78;;
72478;SDS011;60658;52.246;5.258;2022-11-15T20:22:32;9.50;;;6.13;;
72478;SDS011;60658;52.246;5.258;2022-11-15T20:24:01;12.32;;;6.60;;
72478;SDS011;60658;52.246;5.258;2022-11-15T20:38:38;12.73;;;7.20;;
72478;SDS011;60658;52.246;5.258;2022-11-15T20:38:43;13.77;;;6.80;;
72478;SDS011;60658;52.246;5.258;2022-11-15T20:39:56;11.70;;;6.80;;
72478;SDS011;60658;52.246;5.258;2022-11-15T20:41:11;10.52;;;6.95;;
72478;SDS011;60658;52.246;5.258;2022-11-15T20:42:31;10.95;;;7.38;;
72478;SDS011;60658;52.246;5.258;2022-11-15T20:45:16;9.27;;;6.70;;
72478;SDS011;60658;52.246;5.258;2022-11-15T20:46:38;12.07;;;7.47;;
72478;SDS011;60658;52.246;5.258;2022-11-15T20:47:51;12.43;;;7.97;;
72478;SDS011;60658;52.246;5.258;2022-11-15T20:49:04;11.68;;;7.38;;
72478;SDS011;60658;52.246;5.258;2022-11-15T20:50:26;12.20;;;7.47;;
72478;SDS011;60658;52.246;5.258;2022-11-15T20:51:38;12.30;;;7.57;;
72478;SDS011;60658;52.246;5.258;2022-11-15T20:56:05;11.90;;;8.50;;
72478;SDS011;60658;52.246;5.258;2022-11-15T20:58:44;13.15;;;7.70;;
72478;SDS011;60658;52.246;5.258;2022-11-15T21:01:27;11.52;;;7.38;;
